createdAt,value
2023-02-09T00:01:35.167Z,-0.52
2023-02-09T00:04:02.733Z,-0.60
2023-02-09T00:06:30.393Z,-0.46
2023-02-09T00:08:58.868Z,-0.40
2023-02-09T00:11:49.246Z,-0.37
2023-02-09T00:14:21.568Z,-0.53
2023-02-09T00:16:49.684Z,-0.47
2023-02-09T00:19:17.929Z,-0.58
2023-02-09T00:21:45.158Z,-0.49
2023-02-09T00:24:13.174Z,-0.36
2023-02-09T00:26:40.790Z,-0.54
2023-02-09T00:29:08.686Z,-0.53
2023-02-09T00:31:35.522Z,-0.61
2023-02-09T00:34:03.009Z,-0.53
2023-02-09T00:36:29.866Z,-0.53
2023-02-09T00:38:56.870Z,-0.64
2023-02-09T00:41:47.454Z,-0.77
2023-02-09T00:44:14.498Z,-0.75
2023-02-09T00:46:41.327Z,-0.77
2023-02-09T00:49:08.356Z,-0.78
2023-02-09T00:51:35.182Z,-0.81
2023-02-09T00:54:02.138Z,-0.71
2023-02-09T00:56:28.829Z,-0.82
2023-02-09T00:58:55.857Z,-0.89
2023-02-09T01:01:23.495Z,-0.80
2023-02-09T01:03:50.361Z,-0.79
2023-02-09T01:06:16.997Z,-0.91
2023-02-09T01:08:43.643Z,-0.91
2023-02-09T01:11:12.095Z,-0.93
2023-02-09T01:13:38.764Z,-1.00
2023-02-09T01:16:17.352Z,-0.95
2023-02-09T01:18:44.899Z,-1.02
2023-02-09T01:21:17.287Z,-1.00
2023-02-09T01:23:44.874Z,-1.08
2023-02-09T01:26:12.970Z,-1.13
2023-02-09T01:28:40.307Z,-1.07
2023-02-09T01:31:21.774Z,-1.13
2023-02-09T01:33:48.642Z,-1.13
2023-02-09T01:36:15.600Z,-1.18
2023-02-09T01:38:42.229Z,-1.27
2023-02-09T01:41:09.014Z,-1.24
2023-02-09T01:44:17.498Z,-1.24
2023-02-09T01:46:44.416Z,-1.22
2023-02-09T01:49:41.235Z,-1.25
2023-02-09T01:52:13.095Z,-1.29
2023-02-09T01:54:39.635Z,-1.26
2023-02-09T01:57:10.067Z,-1.29
2023-02-09T01:59:39.909Z,-1.44
2023-02-09T02:02:08.365Z,-1.54
2023-02-09T02:04:36.843Z,-1.51
2023-02-09T02:07:38.022Z,-1.52
2023-02-09T02:10:05.161Z,-1.55
2023-02-09T02:12:32.929Z,-1.52
2023-02-09T02:14:59.477Z,-1.51
2023-02-09T02:17:29.064Z,-1.58
2023-02-09T02:20:18.501Z,-1.61
2023-02-09T02:23:08.626Z,-1.61
2023-02-09T02:25:47.218Z,-1.62
2023-02-09T02:28:23.051Z,-1.57
2023-02-09T02:31:08.610Z,-1.57
2023-02-09T02:33:35.221Z,-1.51
2023-02-09T02:36:24.958Z,-1.26
2023-02-09T02:39:01.830Z,-1.36
2023-02-09T02:42:01.827Z,-1.52
2023-02-09T02:44:31.237Z,-1.45
2023-02-09T02:47:04.492Z,-1.39
2023-02-09T02:49:31.079Z,-1.30
2023-02-09T02:52:02.820Z,-1.24
2023-02-09T02:54:33.940Z,-1.24
2023-02-09T02:57:11.676Z,-1.32
2023-02-09T02:59:44.457Z,-1.27
2023-02-09T03:02:17.505Z,-1.36
2023-02-09T03:04:45.501Z,-1.35
2023-02-09T03:07:12.015Z,-1.45
2023-02-09T03:09:48.674Z,-1.56
2023-02-09T03:12:25.540Z,-1.57
2023-02-09T03:15:15.129Z,-1.71
2023-02-09T03:18:24.158Z,-1.68
2023-02-09T03:20:54.922Z,-1.62
2023-02-09T03:23:34.158Z,-1.77
2023-02-09T03:26:07.630Z,-1.74
2023-02-09T03:28:38.693Z,-1.74
2023-02-09T03:31:06.035Z,-1.83
2023-02-09T03:33:34.667Z,-1.84
2023-02-09T03:36:02.586Z,-1.90
2023-02-09T03:38:29.692Z,-1.87
2023-02-09T03:40:56.346Z,-1.85
2023-02-09T03:43:42.931Z,-1.80
2023-02-09T03:46:10.049Z,-1.75
2023-02-09T03:48:36.707Z,-1.71
2023-02-09T03:51:03.565Z,-1.88
2023-02-09T03:53:30.207Z,-1.69
2023-02-09T03:55:56.716Z,-1.74
2023-02-09T03:58:23.412Z,-1.75
2023-02-09T04:00:50.004Z,-1.66
2023-02-09T04:03:16.583Z,-1.73
2023-02-09T04:05:43.167Z,-1.73
2023-02-09T04:08:09.753Z,-1.83
2023-02-09T04:10:36.674Z,-1.69
2023-02-09T04:13:03.328Z,-1.58
2023-02-09T04:15:29.882Z,-1.77
2023-02-09T04:17:56.631Z,-1.70
2023-02-09T04:20:23.186Z,-1.67
2023-02-09T04:22:49.771Z,-1.85
2023-02-09T04:25:16.579Z,-1.77
2023-02-09T04:27:43.205Z,-1.84
2023-02-09T04:30:10.397Z,-1.79
2023-02-09T04:32:37.031Z,-1.81
2023-02-09T04:35:03.896Z,-1.74
2023-02-09T04:37:30.472Z,-1.80
2023-02-09T04:39:57.074Z,-1.82
2023-02-09T04:42:24.813Z,-1.80
2023-02-09T04:44:51.365Z,-1.80
2023-02-09T04:47:17.999Z,-1.80
2023-02-09T04:49:44.594Z,-1.72
2023-02-09T04:52:11.256Z,-1.81
2023-02-09T04:54:37.853Z,-1.73
2023-02-09T04:57:22.915Z,-1.73
2023-02-09T04:59:49.562Z,-1.70
2023-02-09T05:02:16.480Z,-1.73
2023-02-09T05:04:43.136Z,-1.73
2023-02-09T05:07:09.722Z,-1.80
2023-02-09T05:09:36.247Z,-1.84
2023-02-09T05:12:02.921Z,-1.96
2023-02-09T05:14:29.535Z,-1.89
2023-02-09T05:16:56.160Z,-1.94
2023-02-09T05:19:23.106Z,-1.84
2023-02-09T05:21:49.783Z,-1.74
2023-02-09T05:24:16.399Z,-1.74
2023-02-09T05:26:43.255Z,-1.90
2023-02-09T05:29:09.868Z,-1.88
2023-02-09T05:31:36.594Z,-1.98
2023-02-09T05:34:03.396Z,-2.02
2023-02-09T05:36:30.068Z,-2.04
2023-02-09T05:38:56.644Z,-2.02
2023-02-09T05:41:42.000Z,-2.04
2023-02-09T05:44:08.964Z,-2.18
2023-02-09T05:46:35.548Z,-2.08
2023-02-09T05:49:02.221Z,-2.16
2023-02-09T05:51:28.875Z,-2.14
2023-02-09T05:53:56.404Z,-2.24
2023-02-09T05:56:23.054Z,-2.21
2023-02-09T05:58:49.654Z,-2.32
2023-02-09T06:01:16.262Z,-2.31
2023-02-09T06:03:42.939Z,-2.26
2023-02-09T06:06:09.519Z,-2.20
2023-02-09T06:08:36.248Z,-2.21
2023-02-09T06:11:06.067Z,-2.16
2023-02-09T06:13:33.377Z,-2.20
2023-02-09T06:15:59.969Z,-2.12
2023-02-09T06:18:26.640Z,-2.22
2023-02-09T06:20:54.183Z,-2.23
2023-02-09T06:23:20.756Z,-2.28
2023-02-09T06:25:47.434Z,-2.23
2023-02-09T06:28:14.071Z,-2.14
2023-02-09T06:30:40.854Z,-2.25
2023-02-09T06:33:07.484Z,-2.28
2023-02-09T06:35:34.023Z,-2.36
2023-02-09T06:38:00.710Z,-2.19
2023-02-09T06:40:27.409Z,-2.26
2023-02-09T06:42:54.050Z,-2.21
2023-02-09T06:45:20.635Z,-2.21
2023-02-09T06:47:47.326Z,-2.26
2023-02-09T06:50:15.729Z,-2.21
2023-02-09T06:52:42.643Z,-2.30
2023-02-09T06:55:09.786Z,-2.45
2023-02-09T06:57:36.470Z,-2.26
2023-02-09T07:00:05.802Z,-2.34
2023-02-09T07:02:32.424Z,-2.28
2023-02-09T07:04:59.040Z,-2.21
2023-02-09T07:07:25.887Z,-2.32
2023-02-09T07:09:52.624Z,-2.42
2023-02-09T07:12:19.237Z,-2.27
2023-02-09T07:14:46.077Z,-2.19
2023-02-09T07:17:12.644Z,-2.30
2023-02-09T07:19:39.173Z,-2.29
2023-02-09T07:22:05.709Z,-2.40
2023-02-09T07:24:32.368Z,-2.25
2023-02-09T07:26:59.002Z,-2.35
2023-02-09T07:29:25.796Z,-2.29
2023-02-09T07:31:52.483Z,-2.26
2023-02-09T07:34:19.150Z,-2.26
2023-02-09T07:36:47.790Z,-2.27
2023-02-09T07:39:14.885Z,-2.22
2023-02-09T07:41:41.537Z,-2.28
2023-02-09T07:44:09.321Z,-2.17
2023-02-09T07:46:36.218Z,-2.15
2023-02-09T07:49:03.038Z,-2.04
2023-02-09T07:51:29.917Z,-1.97
2023-02-09T07:53:58.983Z,-1.82
2023-02-09T07:56:27.241Z,-1.86
2023-02-09T07:58:54.725Z,-1.87
2023-02-09T08:01:21.822Z,-1.80
2023-02-09T08:03:50.295Z,-1.63
2023-02-09T08:06:42.758Z,-1.66
2023-02-09T08:09:10.680Z,-1.53
2023-02-09T08:11:52.748Z,-1.52
2023-02-09T08:14:24.655Z,-1.57
2023-02-09T08:17:18.518Z,-1.50
2023-02-09T08:20:05.153Z,-1.28
2023-02-09T08:22:35.401Z,-1.35
2023-02-09T08:25:03.179Z,-1.26
2023-02-09T08:27:30.347Z,-1.15
2023-02-09T08:29:58.754Z,-1.12
2023-02-09T08:32:25.553Z,-1.02
2023-02-09T08:34:52.108Z,-0.86
2023-02-09T08:37:18.757Z,-0.69
2023-02-09T08:39:45.394Z,-0.87
2023-02-09T08:42:12.031Z,-0.77
2023-02-09T08:44:38.574Z,-0.69
2023-02-09T08:47:05.440Z,-0.63
2023-02-09T08:49:32.071Z,-0.60
2023-02-09T08:51:58.720Z,-0.63
2023-02-09T08:54:25.530Z,-0.62
2023-02-09T08:56:52.199Z,-0.56
2023-02-09T08:59:20.137Z,-0.42
2023-02-09T09:01:46.833Z,-0.30
2023-02-09T09:04:13.591Z,-0.39
2023-02-09T09:06:40.182Z,-0.25
2023-02-09T09:09:06.815Z,-0.31
2023-02-09T09:11:33.645Z,-0.12
2023-02-09T09:14:00.396Z,-0.02
2023-02-09T09:16:26.961Z,0.10
2023-02-09T09:18:53.593Z,0.19
2023-02-09T09:21:20.278Z,0.19
2023-02-09T09:23:47.429Z,0.41
2023-02-09T09:26:15.408Z,0.37
2023-02-09T09:28:42.256Z,0.38
2023-02-09T09:31:11.814Z,0.35
2023-02-09T09:33:38.921Z,0.48
2023-02-09T09:36:07.099Z,0.61
2023-02-09T09:38:35.147Z,0.56
2023-02-09T09:41:01.846Z,0.70
2023-02-09T09:43:46.868Z,0.83
2023-02-09T09:46:21.408Z,0.78
2023-02-09T09:48:51.928Z,0.97
2023-02-09T09:51:33.046Z,1.04
2023-02-09T09:54:02.172Z,1.28
2023-02-09T09:56:31.428Z,1.21
2023-02-09T09:58:59.784Z,1.31
2023-02-09T10:01:28.910Z,1.30
2023-02-09T10:04:06.735Z,1.64
2023-02-09T10:06:36.899Z,1.95
2023-02-09T10:09:10.737Z,1.92
2023-02-09T10:11:45.921Z,2.07
2023-02-09T10:14:12.604Z,2.28
2023-02-09T10:16:39.420Z,2.42
2023-02-09T10:19:18.882Z,2.52
2023-02-09T10:21:45.675Z,2.86
2023-02-09T10:24:24.832Z,2.79
2023-02-09T10:27:20.865Z,2.96
2023-02-09T10:29:47.863Z,2.84
2023-02-09T10:32:22.006Z,2.95
2023-02-09T10:34:48.523Z,3.00
2023-02-09T10:37:37.962Z,2.97
2023-02-09T10:40:27.509Z,2.91
2023-02-09T10:42:57.187Z,3.08
2023-02-09T10:45:32.911Z,3.10
2023-02-09T10:48:11.755Z,3.23
2023-02-09T10:51:01.134Z,3.18
2023-02-09T10:53:27.676Z,3.04
2023-02-09T10:56:46.784Z,3.45
2023-02-09T10:59:21.956Z,3.42
2023-02-09T11:01:54.927Z,3.51
2023-02-09T11:04:27.551Z,3.78
2023-02-09T11:07:02.539Z,3.85
2023-02-09T11:09:35.318Z,3.93
2023-02-09T11:12:02.474Z,3.81
2023-02-09T11:14:29.635Z,3.81
2023-02-09T11:17:17.645Z,4.00
2023-02-09T11:19:56.087Z,3.93
2023-02-09T11:23:00.640Z,3.93
2023-02-09T11:25:34.091Z,3.81
2023-02-09T11:28:25.172Z,3.96
2023-02-09T11:31:26.290Z,4.26
2023-02-09T11:34:21.628Z,4.33
2023-02-09T11:37:19.141Z,4.31
2023-02-09T11:40:22.345Z,4.40
2023-02-09T11:43:15.049Z,4.72
2023-02-09T11:45:47.571Z,4.51
2023-02-09T11:48:19.948Z,4.52
2023-02-09T11:50:46.722Z,4.48
2023-02-09T11:53:28.776Z,4.43
2023-02-09T11:56:02.181Z,4.52
2023-02-09T11:58:31.579Z,4.74
2023-02-09T12:01:24.048Z,4.82
2023-02-09T12:03:59.299Z,5.18
2023-02-09T12:06:28.605Z,4.96
2023-02-09T12:09:08.813Z,4.89
2023-02-09T12:12:08.712Z,5.11
2023-02-09T12:14:59.412Z,4.80
2023-02-09T12:17:34.789Z,4.76
2023-02-09T12:20:02.620Z,4.82
2023-02-09T12:22:35.565Z,4.70
2023-02-09T12:25:17.339Z,4.76
2023-02-09T12:28:17.003Z,4.79
2023-02-09T12:30:43.769Z,4.73
2023-02-09T12:33:16.836Z,4.80
2023-02-09T12:35:44.084Z,4.75
2023-02-09T12:38:19.633Z,4.81
2023-02-09T12:41:05.555Z,5.09
2023-02-09T12:43:34.579Z,4.92
2023-02-09T12:46:23.112Z,5.12
2023-02-09T12:49:01.802Z,5.18
2023-02-09T12:51:40.441Z,5.02
2023-02-09T12:54:29.272Z,5.16
2023-02-09T12:57:16.629Z,5.24
2023-02-09T12:59:52.736Z,5.42
2023-02-09T13:02:46.385Z,5.65
2023-02-09T13:05:29.163Z,5.58
2023-02-09T13:08:10.885Z,5.49
2023-02-09T13:11:05.441Z,5.76
2023-02-09T13:13:32.148Z,5.38
2023-02-09T13:16:03.273Z,5.54
2023-02-09T13:19:01.214Z,5.58
2023-02-09T13:21:42.794Z,5.77
2023-02-09T13:24:19.241Z,5.53
2023-02-09T13:26:55.187Z,5.53
2023-02-09T13:29:26.977Z,5.53
2023-02-09T13:32:09.376Z,5.48
2023-02-09T13:34:56.050Z,5.38
2023-02-09T13:37:25.349Z,5.46
2023-02-09T13:39:57.960Z,5.15
2023-02-09T13:42:27.012Z,5.25
2023-02-09T13:44:56.261Z,5.51
2023-02-09T13:47:23.656Z,5.56
2023-02-09T13:50:11.799Z,5.46
2023-02-09T13:52:40.056Z,5.58
2023-02-09T13:55:20.509Z,5.80
2023-02-09T13:57:58.984Z,5.56
2023-02-09T14:00:44.794Z,5.69
2023-02-09T14:03:24.842Z,5.49
2023-02-09T14:06:00.815Z,5.57
2023-02-09T14:08:31.040Z,5.65
2023-02-09T14:11:09.572Z,5.70
2023-02-09T14:13:42.748Z,5.71
2023-02-09T14:16:14.221Z,5.72
2023-02-09T14:18:57.159Z,5.42
2023-02-09T14:21:23.694Z,5.52
2023-02-09T14:23:50.388Z,5.33
2023-02-09T14:26:22.693Z,5.33
2023-02-09T14:29:03.778Z,5.39
2023-02-09T14:31:30.492Z,5.28
2023-02-09T14:33:57.373Z,5.34
2023-02-09T14:36:36.165Z,5.36
2023-02-09T14:39:17.488Z,5.27
2023-02-09T14:42:10.779Z,5.54
2023-02-09T14:44:54.604Z,5.39
2023-02-09T14:47:27.239Z,5.39
2023-02-09T14:49:53.811Z,5.36
2023-02-09T14:52:23.758Z,5.45
2023-02-09T14:54:50.865Z,5.32
2023-02-09T14:57:17.553Z,5.28
2023-02-09T14:59:44.281Z,5.45
2023-02-09T15:02:23.972Z,5.41
2023-02-09T15:04:50.694Z,5.44
2023-02-09T15:07:20.299Z,5.42
2023-02-09T15:09:47.276Z,5.45
2023-02-09T15:12:23.730Z,5.36
2023-02-09T15:14:53.578Z,5.31
2023-02-09T15:17:23.786Z,5.38
2023-02-09T15:19:50.449Z,5.40
2023-02-09T15:22:17.995Z,5.24
2023-02-09T15:24:46.810Z,5.13
2023-02-09T15:27:25.382Z,5.23
2023-02-09T15:29:52.760Z,5.11
2023-02-09T15:32:21.600Z,5.25
2023-02-09T15:34:48.600Z,5.28
2023-02-09T15:37:33.133Z,5.29
2023-02-09T15:40:04.165Z,5.25
2023-02-09T15:43:08.971Z,5.19
2023-02-09T15:45:53.923Z,5.19
2023-02-09T15:48:20.519Z,5.18
2023-02-09T15:50:48.219Z,5.15
2023-02-09T15:53:18.567Z,5.13
2023-02-09T15:55:46.054Z,5.24
2023-02-09T15:58:19.159Z,5.13
2023-02-09T16:00:46.192Z,5.13
2023-02-09T16:03:18.928Z,5.08
2023-02-09T16:05:48.376Z,5.11
2023-02-09T16:08:22.710Z,5.13
2023-02-09T16:10:50.010Z,5.15
2023-02-09T16:13:18.254Z,5.23
2023-02-09T16:15:45.153Z,5.25
2023-02-09T16:18:12.193Z,5.19
2023-02-09T16:20:46.698Z,5.01
2023-02-09T16:23:20.960Z,5.12
2023-02-09T16:25:50.775Z,5.10
2023-02-09T16:28:18.365Z,5.19
2023-02-09T16:30:54.867Z,5.15
2023-02-09T16:33:23.402Z,5.15
2023-02-09T16:35:58.330Z,5.04
2023-02-09T16:38:26.021Z,5.12
2023-02-09T16:40:54.641Z,5.12
2023-02-09T16:43:22.211Z,5.09
2023-02-09T16:46:02.429Z,5.07
2023-02-09T16:48:32.290Z,5.08
2023-02-09T16:50:59.329Z,5.14
2023-02-09T16:53:27.099Z,5.06
2023-02-09T16:55:53.849Z,5.02
2023-02-09T16:58:20.478Z,5.09
2023-02-09T17:00:47.349Z,5.01
2023-02-09T17:03:28.807Z,5.07
2023-02-09T17:05:57.456Z,5.03
2023-02-09T17:08:27.526Z,5.02
2023-02-09T17:10:56.059Z,5.02
2023-02-09T17:13:23.160Z,4.94
2023-02-09T17:15:56.002Z,4.98
2023-02-09T17:18:44.245Z,4.95
2023-02-09T17:21:23.361Z,4.98
2023-02-09T17:23:50.724Z,4.93
2023-02-09T17:26:17.830Z,5.00
2023-02-09T17:28:44.520Z,4.89
2023-02-09T17:31:43.819Z,5.03
2023-02-09T17:34:17.728Z,5.03
2023-02-09T17:36:45.065Z,5.02
2023-02-09T17:39:11.908Z,4.87
2023-02-09T17:41:44.738Z,4.93
2023-02-09T17:44:44.585Z,4.99
2023-02-09T17:47:20.000Z,4.94
2023-02-09T17:49:46.663Z,5.00
2023-02-09T17:52:20.560Z,4.97
2023-02-09T17:54:48.689Z,4.97
2023-02-09T17:57:16.783Z,4.89
2023-02-09T17:59:43.425Z,5.01
2023-02-09T18:02:16.897Z,4.91
2023-02-09T18:04:43.834Z,4.95
2023-02-09T18:07:10.863Z,4.85
2023-02-09T18:09:37.439Z,4.86
2023-02-09T18:12:27.680Z,4.77
2023-02-09T18:14:54.297Z,4.76
2023-02-09T18:17:20.898Z,4.77
2023-02-09T18:19:47.465Z,4.67
2023-02-09T18:22:17.509Z,4.80
2023-02-09T18:24:44.485Z,4.69
2023-02-09T18:27:15.002Z,4.61
2023-02-09T18:29:41.707Z,4.71
2023-02-09T18:32:11.979Z,4.65
2023-02-09T18:34:38.633Z,4.58
2023-02-09T18:37:05.169Z,4.44
2023-02-09T18:39:35.760Z,4.58
2023-02-09T18:42:02.736Z,4.69
2023-02-09T18:44:30.304Z,4.60
2023-02-09T18:47:00.343Z,4.58
2023-02-09T18:49:26.969Z,4.50
2023-02-09T18:51:53.710Z,4.58
2023-02-09T18:54:20.304Z,4.60
2023-02-09T18:56:47.059Z,4.63
2023-02-09T18:59:13.785Z,4.65
2023-02-09T19:01:41.098Z,4.65
2023-02-09T19:04:07.953Z,4.52
2023-02-09T19:06:35.540Z,4.48
2023-02-09T19:09:02.732Z,4.51
2023-02-09T19:11:29.339Z,4.38
2023-02-09T19:14:14.696Z,4.41
2023-02-09T19:16:41.271Z,4.24
2023-02-09T19:19:09.489Z,4.19
2023-02-09T19:21:36.423Z,4.06
2023-02-09T19:24:03.351Z,4.08
2023-02-09T19:26:29.936Z,4.01
2023-02-09T19:28:57.466Z,3.99
2023-02-09T19:31:24.803Z,4.03
2023-02-09T19:33:56.413Z,3.95
2023-02-09T19:36:24.522Z,3.80
2023-02-09T19:38:51.185Z,3.78
2023-02-09T19:41:17.984Z,3.79
2023-02-09T19:43:44.648Z,3.78
2023-02-09T19:46:11.881Z,3.75
2023-02-09T19:48:40.333Z,3.68
2023-02-09T19:51:08.551Z,3.76
2023-02-09T19:53:35.232Z,3.75
2023-02-09T19:56:02.374Z,3.64
2023-02-09T19:58:29.068Z,3.43
2023-02-09T20:00:56.192Z,3.44
2023-02-09T20:03:24.067Z,3.48
2023-02-09T20:05:51.353Z,3.34
2023-02-09T20:08:20.064Z,3.33
2023-02-09T20:10:47.311Z,3.38
2023-02-09T20:13:15.026Z,3.33
2023-02-09T20:15:44.047Z,3.40
2023-02-09T20:18:12.200Z,3.49
2023-02-09T20:20:41.184Z,3.40
2023-02-09T20:23:08.620Z,3.27
2023-02-09T20:25:35.162Z,3.32
2023-02-09T20:28:01.926Z,3.27
2023-02-09T20:30:28.576Z,3.34
2023-02-09T20:32:55.171Z,3.12
2023-02-09T20:35:21.833Z,2.88
2023-02-09T20:37:48.639Z,2.87
2023-02-09T20:40:15.468Z,2.87
2023-02-09T20:43:00.517Z,2.75
2023-02-09T20:45:46.004Z,2.65
2023-02-09T20:48:13.843Z,2.62
2023-02-09T20:50:40.581Z,2.61
2023-02-09T20:53:07.251Z,2.70
2023-02-09T20:55:34.094Z,2.53
2023-02-09T20:58:01.015Z,2.54
2023-02-09T21:00:27.877Z,2.52
2023-02-09T21:02:54.537Z,2.56
2023-02-09T21:05:21.244Z,2.50
2023-02-09T21:07:50.453Z,2.53
2023-02-09T21:10:17.252Z,2.56
2023-02-09T21:12:44.005Z,2.58
2023-02-09T21:15:10.650Z,2.47
2023-02-09T21:17:38.151Z,2.44
2023-02-09T21:20:06.008Z,2.37
2023-02-09T21:22:32.629Z,2.56
2023-02-09T21:24:59.177Z,2.60
2023-02-09T21:27:26.222Z,2.50
2023-02-09T21:29:52.754Z,2.35
2023-02-09T21:32:19.558Z,2.29
2023-02-09T21:34:46.235Z,2.36
2023-02-09T21:37:14.120Z,2.37
2023-02-09T21:39:42.525Z,2.39
2023-02-09T21:42:29.257Z,2.21
2023-02-09T21:44:56.302Z,2.18
2023-02-09T21:47:31.210Z,2.30
2023-02-09T21:49:58.128Z,2.32
2023-02-09T21:52:25.315Z,2.42
2023-02-09T21:54:52.305Z,2.38
2023-02-09T21:57:18.964Z,2.28
2023-02-09T21:59:45.608Z,2.37
2023-02-09T22:02:17.400Z,2.04
2023-02-09T22:04:45.649Z,2.09
2023-02-09T22:07:13.578Z,2.08
2023-02-09T22:09:40.618Z,1.99
2023-02-09T22:12:07.536Z,1.86
2023-02-09T22:14:34.272Z,1.93
2023-02-09T22:17:00.960Z,2.00
2023-02-09T22:19:28.798Z,1.79
2023-02-09T22:21:58.141Z,1.72
2023-02-09T22:24:25.283Z,1.65
2023-02-09T22:26:52.243Z,1.63
2023-02-09T22:29:19.270Z,1.61
2023-02-09T22:31:45.891Z,1.54
2023-02-09T22:34:12.653Z,1.48
2023-02-09T22:36:39.868Z,1.60
2023-02-09T22:39:07.561Z,1.60
2023-02-09T22:41:34.245Z,1.73
2023-02-09T22:44:03.371Z,1.54
2023-02-09T22:46:36.094Z,1.35
2023-02-09T22:49:07.862Z,1.24
2023-02-09T22:51:36.507Z,1.15
2023-02-09T22:54:04.578Z,1.25
2023-02-09T22:56:31.840Z,1.20
2023-02-09T22:59:00.226Z,1.37
2023-02-09T23:01:28.063Z,1.21
2023-02-09T23:03:55.187Z,1.10
2023-02-09T23:06:24.594Z,1.02
2023-02-09T23:08:56.699Z,0.95
2023-02-09T23:11:23.778Z,1.07
2023-02-09T23:14:00.442Z,0.98
2023-02-09T23:16:34.026Z,0.60
2023-02-09T23:19:04.048Z,0.73
2023-02-09T23:21:33.749Z,0.75
2023-02-09T23:24:00.486Z,0.65
2023-02-09T23:26:27.610Z,0.51
2023-02-09T23:28:59.616Z,0.56
2023-02-09T23:31:26.979Z,0.47
2023-02-09T23:33:54.491Z,0.44
2023-02-09T23:36:24.524Z,0.37
2023-02-09T23:38:56.464Z,0.43
2023-02-09T23:41:23.775Z,0.35
2023-02-09T23:43:51.206Z,0.28
2023-02-09T23:46:21.156Z,0.46
2023-02-09T23:48:48.573Z,0.40
2023-02-09T23:51:18.580Z,0.22
2023-02-09T23:53:46.241Z,0.16
2023-02-09T23:56:14.589Z,-0.17
2023-02-09T23:58:44.482Z,-0.18
